Time;durP1;ratioP1;P1;durP2;ratioP2;P2;SDS_P1;SDS_P2;PMS_P1;PMS_P2;Temp;Humidity;BMP_temperature;BMP_pressure;BME280_temperature;BME280_humidity;BME280_pressure;Samples;Min_cycle;Max_cycle;Signal;HPM_P1;HPM_P2
2022/07/01 00:01:55;;;;;;;;;;;27.60;99.40;;;;;;5155853;27;19907;-66
2022/07/01 00:04:21;;;;;;;;;;;27.70;99.40;;;;;;5155419;27;19910;-66
2022/07/01 00:06:46;;;;;;;;;;;27.70;99.40;;;;;;5155246;27;19999;-66
2022/07/01 00:09:12;;;;;;;;;;;27.70;99.30;;;;;;5155530;27;19903;-68
2022/07/01 00:11:38;;;;;;;;;;;27.80;99.20;;;;;;5155840;27;19903;-67
2022/07/01 00:14:04;;;;;;;;;;;27.70;99.50;;;;;;5155074;27;19972;-67
2022/07/01 00:16:30;;;;;;;;;;;27.60;99.80;;;;;;5155149;27;19974;-67
2022/07/01 00:18:55;;;;;;;;;;;27.50;99.90;;;;;;5155183;27;19910;-66
2022/07/01 00:21:21;;;;;;;;;;;27.50;99.90;;;;;;5155102;27;20363;-67
2022/07/01 00:23:47;;;;;;;;;;;27.60;99.90;;;;;;5153623;27;19910;-66
2022/07/01 00:26:13;;;;;;;;;;;27.60;99.90;;;;;;5155037;27;19903;-66
2022/07/01 00:28:38;;;;;;;;;;;27.50;99.90;;;;;;5155045;27;19907;-68
2022/07/01 00:31:04;;;;;;;;;;;27.40;99.90;;;;;;5154979;27;19907;-65
2022/07/01 00:33:30;;;;;;;;;;;27.30;99.90;;;;;;5154787;27;19911;-66
2022/07/01 00:35:56;;;;;;;;;;;27.30;99.90;;;;;;5155314;27;20188;-67
2022/07/01 00:38:22;;;;;;;;;;;27.20;99.90;;;;;;5155033;27;19914;-66
2022/07/01 00:40:52;;;;;;;;;;;27.30;99.90;;;;;;5155165;27;19947;-66
2022/07/01 00:43:18;;;;;;;;;;;27.30;99.90;;;;;;5154805;27;19926;-66
2022/07/01 00:45:48;;;;;;;;;;;27.20;99.90;;;;;;5154928;27;19906;-67
2022/07/01 00:48:14;;;;;;;;;;;27.20;99.90;;;;;;5155134;27;19910;-68
2022/07/01 00:50:40;;;;;;;;;;;27.10;99.90;;;;;;5154660;27;19954;-67
2022/07/01 00:53:06;;;;;;;;;;;27.10;99.90;;;;;;5154716;27;19911;-68
2022/07/01 00:55:32;;;;;;;;;;;27.00;99.90;;;;;;5154597;27;19909;-67
2022/07/01 00:57:58;;;;;;;;;;;27.00;99.90;;;;;;5154419;27;19928;-67
2022/07/01 01:00:25;;;;;;;;;;;27.10;99.90;;;;;;5154266;27;19997;-67
2022/07/01 01:02:51;;;;;;;;;;;27.10;99.90;;;;;;5153548;27;19903;-67
2022/07/01 01:05:17;;;;;;;;;;;27.20;99.90;;;;;;5154366;27;19903;-66
2022/07/01 01:07:43;;;;;;;;;;;27.20;99.90;;;;;;5152616;27;19915;-68
2022/07/01 01:10:09;;;;;;;;;;;27.20;99.90;;;;;;5154639;27;19956;-66
2022/07/01 01:12:35;;;;;;;;;;;27.30;99.90;;;;;;5154317;27;19903;-68
2022/07/01 01:15:02;;;;;;;;;;;27.30;99.90;;;;;;5154227;27;19967;-66
2022/07/01 01:17:27;;;;;;;;;;;27.40;99.90;;;;;;5152591;27;19903;-67
2022/07/01 01:19:53;;;;;;;;;;;27.50;99.90;;;;;;5154064;27;19914;-66
2022/07/01 01:22:19;;;;;;;;;;;27.50;99.90;;;;;;5154582;27;20206;-66
2022/07/01 01:24:47;;;;;;;;;;;27.60;99.90;;;;;;5154135;27;20188;-66
2022/07/01 01:27:13;;;;;;;;;;;27.70;99.90;;;;;;5154103;27;19911;-67
2022/07/01 01:29:39;;;;;;;;;;;27.70;99.90;;;;;;5153915;27;20314;-66
2022/07/01 01:32:06;;;;;;;;;;;27.80;99.90;;;;;;5154007;27;20051;-65
2022/07/01 01:34:32;;;;;;;;;;;27.70;99.90;;;;;;5153706;27;20371;-66
2022/07/01 01:36:58;;;;;;;;;;;27.70;99.90;;;;;;5153809;27;20036;-67
2022/07/01 01:39:24;;;;;;;;;;;27.70;99.90;;;;;;5153683;27;19956;-66
2022/07/01 01:41:50;;;;;;;;;;;27.70;99.90;;;;;;5153603;27;20002;-67
2022/07/01 01:44:16;;;;;;;;;;;27.60;99.90;;;;;;5153906;27;20291;-66
2022/07/01 01:46:42;;;;;;;;;;;27.60;99.90;;;;;;5153617;27;20307;-66
2022/07/01 01:49:08;;;;;;;;;;;27.60;99.90;;;;;;5153507;27;19942;-66
2022/07/01 01:51:33;;;;;;;;;;;27.60;99.90;;;;;;5153439;27;20260;-66
2022/07/01 01:53:59;;;;;;;;;;;27.60;99.90;;;;;;5153369;27;19955;-66
2022/07/01 01:56:26;;;;;;;;;;;27.60;99.90;;;;;;5153276;27;19910;-67
2022/07/01 01:58:51;;;;;;;;;;;27.50;99.90;;;;;;5153160;27;19903;-66
2022/07/01 02:01:18;;;;;;;;;;;27.50;99.90;;;;;;5153241;27;19903;-66
2022/07/01 02:03:44;;;;;;;;;;;27.40;99.90;;;;;;5152995;27;20017;-67
2022/07/01 02:06:11;;;;;;;;;;;27.40;99.90;;;;;;5151255;27;20043;-66
2022/07/01 02:08:40;;;;;;;;;;;27.40;99.90;;;;;;5153156;27;19903;-66
2022/07/01 02:11:06;;;;;;;;;;;27.30;99.90;;;;;;5153028;27;19911;-68
2022/07/01 02:13:32;;;;;;;;;;;27.40;99.90;;;;;;5152928;27;19919;-66
2022/07/01 02:15:58;;;;;;;;;;;27.40;99.90;;;;;;5153049;27;19962;-67
2022/07/01 02:18:24;;;;;;;;;;;27.40;99.90;;;;;;5152899;27;19903;-66
2022/07/01 02:20:50;;;;;;;;;;;27.30;99.90;;;;;;5152952;27;19902;-66
2022/07/01 02:23:15;;;;;;;;;;;27.30;99.90;;;;;;5152953;27;19903;-66
2022/07/01 02:25:41;;;;;;;;;;;27.30;99.90;;;;;;5152977;27;19966;-66
2022/07/01 02:28:07;;;;;;;;;;;27.30;99.90;;;;;;5153019;27;19910;-67
2022/07/01 02:30:36;;;;;;;;;;;27.30;99.90;;;;;;5152628;27;19935;-67
2022/07/01 02:33:03;;;;;;;;;;;27.30;99.90;;;;;;5152804;27;19903;-67
2022/07/01 02:35:29;;;;;;;;;;;27.20;99.90;;;;;;5152527;27;19952;-67
2022/07/01 02:37:55;;;;;;;;;;;27.20;99.90;;;;;;5152535;27;19957;-66
2022/07/01 02:40:21;;;;;;;;;;;27.30;99.90;;;;;;5152651;27;19938;-67
2022/07/01 02:42:47;;;;;;;;;;;27.20;99.90;;;;;;5152567;27;19921;-66
2022/07/01 02:45:13;;;;;;;;;;;27.20;99.90;;;;;;5152473;27;19910;-66
2022/07/01 02:47:39;;;;;;;;;;;27.20;99.90;;;;;;5152358;27;19979;-66
2022/07/01 02:50:06;;;;;;;;;;;27.30;99.90;;;;;;5152230;27;19907;-66
2022/07/01 02:52:34;;;;;;;;;;;27.20;99.90;;;;;;5150850;27;19910;-68
2022/07/01 02:55:00;;;;;;;;;;;27.20;99.90;;;;;;5152386;27;19933;-67
2022/07/01 02:57:26;;;;;;;;;;;27.10;99.90;;;;;;5151072;27;20318;-66
2022/07/01 02:59:52;;;;;;;;;;;27.00;99.90;;;;;;5153030;27;19953;-66
2022/07/01 03:02:19;;;;;;;;;;;26.90;99.90;;;;;;5151096;27;19903;-67
2022/07/01 03:04:45;;;;;;;;;;;27.00;99.90;;;;;;5151576;27;20006;-67
2022/07/01 03:07:11;;;;;;;;;;;26.90;99.90;;;;;;5152799;27;20255;-66
2022/07/01 03:09:39;;;;;;;;;;;26.90;99.90;;;;;;5153035;27;19903;-66
2022/07/01 03:12:24;;;;;;;;;;;27.00;99.90;;;;;;5152683;27;19914;-66
2022/07/01 03:15:00;;;;;;;;;;;27.00;99.90;;;;;;5153210;27;20307;-67
2022/07/01 03:17:27;;;;;;;;;;;26.80;99.90;;;;;;5152944;27;19903;-66
2022/07/01 03:19:53;;;;;;;;;;;26.80;99.90;;;;;;5153024;27;19914;-67
2022/07/01 03:22:20;;;;;;;;;;;26.70;99.90;;;;;;5153216;27;19903;-66
2022/07/01 03:24:47;;;;;;;;;;;26.50;99.90;;;;;;5154129;27;20022;-66
2022/07/01 03:27:13;;;;;;;;;;;26.40;99.90;;;;;;5157148;27;19990;-67
2022/07/01 03:29:39;;;;;;;;;;;26.40;99.90;;;;;;5156956;27;19910;-66
2022/07/01 03:32:05;;;;;;;;;;;26.50;99.90;;;;;;5156757;27;20006;-65
2022/07/01 03:34:31;;;;;;;;;;;26.50;99.90;;;;;;5154853;27;19911;-66
2022/07/01 03:36:57;;;;;;;;;;;26.50;99.90;;;;;;5156848;27;19956;-65
2022/07/01 03:39:23;;;;;;;;;;;26.50;99.90;;;;;;5156744;27;19903;-66
2022/07/01 03:41:49;;;;;;;;;;;26.50;99.90;;;;;;5156999;27;20295;-66
2022/07/01 03:44:14;;;;;;;;;;;26.60;99.90;;;;;;5155231;27;19993;-66
2022/07/01 03:46:40;;;;;;;;;;;26.50;99.90;;;;;;5157118;27;19903;-66
2022/07/01 03:49:08;;;;;;;;;;;26.50;99.90;;;;;;5156707;27;19903;-66
2022/07/01 03:51:33;;;;;;;;;;;26.50;99.90;;;;;;5156439;27;19903;-66
2022/07/01 03:56:43;;;;;;;;;;;26.30;99.90;;;;;;5156696;27;20340;-66
2022/07/01 03:59:09;;;;;;;;;;;26.30;99.90;;;;;;5156459;27;20031;-66
2022/07/01 04:01:35;;;;;;;;;;;26.30;99.90;;;;;;5156756;27;19911;-66
2022/07/01 04:04:01;;;;;;;;;;;26.30;99.90;;;;;;5156199;27;19911;-66
2022/07/01 04:06:27;;;;;;;;;;;26.40;99.90;;;;;;5156006;27;19922;-67
2022/07/01 04:08:53;;;;;;;;;;;26.40;99.90;;;;;;5156207;27;20071;-67
2022/07/01 04:11:19;;;;;;;;;;;26.50;99.90;;;;;;5156277;27;19907;-66
2022/07/01 04:13:49;;;;;;;;;;;26.50;99.90;;;;;;5156134;27;19967;-66
2022/07/01 04:16:19;;;;;;;;;;;26.50;99.90;;;;;;5156203;27;19920;-67
2022/07/01 04:18:45;;;;;;;;;;;26.60;99.90;;;;;;5156371;27;19934;-67
2022/07/01 04:23:56;;;;;;;;;;;26.70;99.90;;;;;;5157320;27;19914;-66
2022/07/01 04:26:25;;;;;;;;;;;26.50;99.90;;;;;;5156827;27;19910;-66
2022/07/01 04:28:52;;;;;;;;;;;26.40;99.90;;;;;;5156732;27;19943;-67
2022/07/01 04:31:18;;;;;;;;;;;26.40;99.90;;;;;;5157038;27;19998;-66
2022/07/01 04:33:45;;;;;;;;;;;26.40;99.90;;;;;;5156579;27;19911;-66
2022/07/01 04:36:10;;;;;;;;;;;26.60;99.90;;;;;;5156428;27;19903;-66
2022/07/01 04:38:36;;;;;;;;;;;26.80;99.90;;;;;;5156927;27;20393;-66
2022/07/01 04:43:46;;;;;;;;;;;27.10;99.90;;;;;;5157742;27;20306;-66
2022/07/01 04:46:12;;;;;;;;;;;27.20;99.90;;;;;;5157067;27;19903;-66
2022/07/01 04:48:39;;;;;;;;;;;27.30;99.90;;;;;;5157278;27;19907;-66
2022/07/01 04:51:05;;;;;;;;;;;27.60;99.90;;;;;;5156720;27;19907;-66
2022/07/01 04:53:31;;;;;;;;;;;27.60;99.90;;;;;;5156674;27;19911;-66
2022/07/01 04:55:57;;;;;;;;;;;27.40;99.90;;;;;;5156913;27;19910;-66
2022/07/01 04:58:23;;;;;;;;;;;27.30;99.90;;;;;;5157069;27;20374;-66
2022/07/01 05:00:48;;;;;;;;;;;27.20;99.90;;;;;;5156816;27;19909;-65
2022/07/01 05:03:16;;;;;;;;;;;27.20;99.90;;;;;;5157005;27;19911;-66
2022/07/01 05:05:42;;;;;;;;;;;27.20;99.90;;;;;;5156083;27;19933;-66
2022/07/01 05:08:08;;;;;;;;;;;27.30;99.90;;;;;;5156750;27;19907;-66
2022/07/01 05:10:33;;;;;;;;;;;27.40;99.90;;;;;;5156613;27;19903;-66
2022/07/01 05:12:59;;;;;;;;;;;27.50;99.90;;;;;;5156558;27;19903;-66
2022/07/01 05:15:25;;;;;;;;;;;27.60;99.90;;;;;;5155505;27;19911;-66
2022/07/01 05:23:19;;;;;;;;;;;29.00;99.90;;;;;;5155831;27;19909;-66
2022/07/01 05:25:45;;;;;;;;;;;29.20;99.90;;;;;;5155483;27;19907;-67
2022/07/01 05:28:11;;;;;;;;;;;29.80;99.90;;;;;;5155440;27;19925;-67
2022/07/01 05:30:37;;;;;;;;;;;30.50;99.90;;;;;;5153828;27;20002;-67
2022/07/01 05:33:03;;;;;;;;;;;31.30;99.90;;;;;;5155562;27;19903;-67
2022/07/01 05:35:28;;;;;;;;;;;32.10;98.80;;;;;;5155144;27;20394;-67
2022/07/01 05:37:54;;;;;;;;;;;32.90;97.20;;;;;;5155374;27;19904;-67
2022/07/01 05:40:23;;;;;;;;;;;33.10;94.90;;;;;;5153516;27;19910;-67
2022/07/01 05:42:49;;;;;;;;;;;32.90;94.90;;;;;;5155869;27;19903;-67
2022/07/01 05:45:15;;;;;;;;;;;33.60;93.70;;;;;;5155295;27;20404;-67
2022/07/01 05:47:41;;;;;;;;;;;34.40;92.70;;;;;;5154453;27;19998;-67
2022/07/01 05:50:07;;;;;;;;;;;35.10;91.50;;;;;;5155187;27;20373;-67
2022/07/01 05:52:32;;;;;;;;;;;35.30;90.50;;;;;;5154770;27;19979;-66
2022/07/01 05:54:58;;;;;;;;;;;35.00;90.30;;;;;;5154597;27;19911;-66
2022/07/01 05:57:24;;;;;;;;;;;34.40;90.60;;;;;;5154105;27;20004;-65
2022/07/01 05:59:50;;;;;;;;;;;33.70;91.30;;;;;;5154708;27;19903;-65
2022/07/01 06:02:15;;;;;;;;;;;33.40;91.60;;;;;;5154718;27;19938;-65
2022/07/01 06:04:43;;;;;;;;;;;33.20;91.40;;;;;;5154309;27;19903;-65
2022/07/01 06:07:10;;;;;;;;;;;32.90;91.40;;;;;;5154244;27;19954;-66
2022/07/01 06:09:36;;;;;;;;;;;32.20;92.20;;;;;;5154442;27;19907;-67
2022/07/01 06:12:02;;;;;;;;;;;31.60;93.00;;;;;;5154672;27;19993;-66
2022/07/01 06:14:28;;;;;;;;;;;31.70;92.70;;;;;;5154228;27;19974;-66
2022/07/01 06:16:54;;;;;;;;;;;31.80;92.50;;;;;;5154400;27;20006;-67
2022/07/01 06:19:20;;;;;;;;;;;31.70;92.40;;;;;;5154402;27;19947;-66
2022/07/01 06:21:46;;;;;;;;;;;31.50;92.40;;;;;;5154647;27;19930;-66
2022/07/01 06:24:12;;;;;;;;;;;31.30;92.60;;;;;;5154443;27;19903;-67
2022/07/01 06:26:37;;;;;;;;;;;31.20;92.90;;;;;;5154500;27;19903;-66
2022/07/01 06:29:03;;;;;;;;;;;31.40;92.80;;;;;;5154386;27;19923;-66
2022/07/01 06:31:29;;;;;;;;;;;32.20;91.80;;;;;;5154055;27;19907;-68
2022/07/01 06:33:55;;;;;;;;;;;33.50;90.50;;;;;;5154268;27;20355;-67
2022/07/01 06:36:21;;;;;;;;;;;34.50;88.80;;;;;;5154710;27;20339;-66
2022/07/01 06:38:47;;;;;;;;;;;35.70;85.70;;;;;;5154280;27;19903;-66
2022/07/01 06:41:28;;;;;;;;;;;37.00;83.60;;;;;;5154464;27;19903;-67
2022/07/01 06:44:01;;;;;;;;;;;37.30;81.00;;;;;;5154334;27;19938;-67
2022/07/01 06:46:27;;;;;;;;;;;37.30;80.10;;;;;;5154165;27;19993;-66
2022/07/01 06:48:53;;;;;;;;;;;37.50;79.40;;;;;;5154002;27;19909;-66
2022/07/01 06:51:19;;;;;;;;;;;37.40;77.70;;;;;;5154395;27;19998;-68
2022/07/01 06:53:46;;;;;;;;;;;37.70;76.30;;;;;;5153777;27;19967;-66
2022/07/01 06:56:13;;;;;;;;;;;38.50;73.80;;;;;;5154126;27;19910;-66
2022/07/01 06:58:39;;;;;;;;;;;37.70;73.40;;;;;;5155418;27;20393;-66
2022/07/01 07:01:05;;;;;;;;;;;36.30;77.20;;;;;;5158351;27;19903;-67
2022/07/01 07:03:32;;;;;;;;;;;36.10;82.60;;;;;;5158426;27;19926;-66
2022/07/01 07:06:00;;;;;;;;;;;36.50;81.30;;;;;;5157968;27;19922;-66
2022/07/01 07:08:26;;;;;;;;;;;37.30;80.40;;;;;;5158670;27;19907;-66
2022/07/01 07:10:52;;;;;;;;;;;38.10;76.50;;;;;;5158146;27;19942;-66
2022/07/01 07:13:18;;;;;;;;;;;38.50;76.70;;;;;;5158034;27;19950;-66
2022/07/01 07:15:44;;;;;;;;;;;38.80;77.00;;;;;;5157923;27;19903;-66
2022/07/01 07:18:10;;;;;;;;;;;39.20;76.50;;;;;;5157686;27;19993;-66
2022/07/01 07:20:36;;;;;;;;;;;39.70;75.40;;;;;;5157775;27;20010;-66
2022/07/01 07:23:02;;;;;;;;;;;40.00;74.10;;;;;;5157899;27;19910;-67
2022/07/01 07:25:28;;;;;;;;;;;40.40;74.20;;;;;;5157623;27;19909;-66
2022/07/01 07:27:54;;;;;;;;;;;40.20;75.00;;;;;;5157583;27;19903;-67
2022/07/01 07:30:19;;;;;;;;;;;40.20;75.00;;;;;;5157646;27;19925;-67
2022/07/01 07:32:45;;;;;;;;;;;40.10;76.20;;;;;;5157801;27;19959;-66
2022/07/01 07:35:11;;;;;;;;;;;40.10;77.30;;;;;;5157632;27;19980;-65
2022/07/01 07:37:37;;;;;;;;;;;39.90;77.30;;;;;;5158023;27;20263;-66
2022/07/01 07:40:06;;;;;;;;;;;39.80;78.20;;;;;;5155839;27;19910;-66
2022/07/01 07:42:32;;;;;;;;;;;39.80;78.00;;;;;;5157326;27;20286;-66
2022/07/01 07:44:58;;;;;;;;;;;39.90;77.80;;;;;;5157414;27;20265;-66
2022/07/01 07:47:24;;;;;;;;;;;39.90;76.80;;;;;;5157528;27;19902;-66
2022/07/01 07:49:50;;;;;;;;;;;39.80;76.10;;;;;;5157564;27;19914;-66
2022/07/01 07:52:15;;;;;;;;;;;39.70;77.10;;;;;;5156928;27;19936;-66
2022/07/01 07:54:41;;;;;;;;;;;39.60;78.90;;;;;;5156831;27;19919;-66
2022/07/01 07:57:07;;;;;;;;;;;39.40;80.10;;;;;;5156710;27;19993;-66
2022/07/01 07:59:33;;;;;;;;;;;39.10;80.30;;;;;;5156776;27;20033;-66
2022/07/01 08:01:59;;;;;;;;;;;39.00;79.60;;;;;;5157056;27;20380;-68
2022/07/01 08:04:25;;;;;;;;;;;38.80;79.00;;;;;;5156890;27;19907;-67
2022/07/01 08:06:51;;;;;;;;;;;38.60;79.50;;;;;;5156691;27;20378;-67
2022/07/01 08:09:18;;;;;;;;;;;38.50;80.20;;;;;;5156920;27;19911;-67
2022/07/01 08:11:44;;;;;;;;;;;38.40;81.40;;;;;;5155754;27;19903;-67
2022/07/01 08:14:09;;;;;;;;;;;38.20;82.90;;;;;;5156473;27;19917;-67
2022/07/01 08:16:36;;;;;;;;;;;37.90;83.40;;;;;;5156872;27;20330;-66
2022/07/01 08:19:02;;;;;;;;;;;37.40;85.50;;;;;;5156715;27;19914;-66
2022/07/01 08:21:28;;;;;;;;;;;36.40;88.10;;;;;;5156634;27;19903;-66
2022/07/01 08:23:54;;;;;;;;;;;36.10;89.70;;;;;;5157015;27;20359;-67
2022/07/01 08:26:20;;;;;;;;;;;36.20;90.10;;;;;;5156427;27;19903;-67
2022/07/01 08:28:46;;;;;;;;;;;36.10;90.30;;;;;;5156570;27;19907;-65
2022/07/01 08:31:11;;;;;;;;;;;36.30;90.60;;;;;;5156498;27;19902;-65
2022/07/01 08:33:37;;;;;;;;;;;36.60;90.60;;;;;;5156817;27;19911;-67
2022/07/01 08:36:04;;;;;;;;;;;37.00;90.00;;;;;;5156557;27;20335;-66
2022/07/01 08:38:30;;;;;;;;;;;37.30;89.50;;;;;;5154815;27;19903;-66
2022/07/01 08:40:56;;;;;;;;;;;37.50;89.10;;;;;;5156481;27;19914;-66
2022/07/01 08:43:22;;;;;;;;;;;37.70;88.60;;;;;;5156439;27;19960;-66
2022/07/01 08:45:50;;;;;;;;;;;37.80;88.20;;;;;;5156656;27;19903;-67
2022/07/01 08:48:16;;;;;;;;;;;37.10;88.40;;;;;;5156517;27;19907;-68
2022/07/01 08:50:42;;;;;;;;;;;37.20;89.10;;;;;;5156340;27;20252;-67
2022/07/01 08:53:10;;;;;;;;;;;37.30;89.50;;;;;;5155670;27;19903;-66
2022/07/01 08:56:40;;;;;;;;;;;37.30;88.40;;;;;;5156154;27;20427;-67
2022/07/01 08:58:22;;;;;;;;;;;37.40;88.50;;;;;;5155660;27;20298;-67
2022/07/01 09:00:48;;;;;;;;;;;37.60;88.20;;;;;;5156187;27;19914;-66
2022/07/01 09:03:14;;;;;;;;;;;37.50;88.40;;;;;;5155787;27;19914;-67
2022/07/01 09:05:47;;;;;;;;;;;37.40;89.20;;;;;;5155583;27;19978;-66
2022/07/01 09:08:13;;;;;;;;;;;37.30;87.50;;;;;;5155778;27;19907;-68
2022/07/01 09:10:38;;;;;;;;;;;36.80;87.80;;;;;;5155570;27;19967;-66
2022/07/01 09:13:07;;;;;;;;;;;36.70;88.40;;;;;;5155946;27;19903;-67
2022/07/01 09:15:33;;;;;;;;;;;36.80;88.90;;;;;;5154990;27;19903;-68
2022/07/01 09:18:06;;;;;;;;;;;36.80;87.40;;;;;;5155574;27;19903;-66
2022/07/01 09:20:33;;;;;;;;;;;36.40;88.10;;;;;;5154941;27;19910;-66
2022/07/01 09:23:12;;;;;;;;;;;36.30;89.10;;;;;;5153901;27;20382;-66
2022/07/01 09:25:39;;;;;;;;;;;36.50;88.90;;;;;;5155249;27;20080;-66
2022/07/01 09:28:09;;;;;;;;;;;36.30;89.50;;;;;;5154895;27;19903;-66
2022/07/01 09:30:36;;;;;;;;;;;36.30;90.10;;;;;;5154962;27;19974;-66
2022/07/01 09:33:09;;;;;;;;;;;36.70;88.70;;;;;;5154816;27;19910;-67
2022/07/01 09:35:36;;;;;;;;;;;37.00;87.90;;;;;;5154653;27;19948;-66
2022/07/01 09:38:02;;;;;;;;;;;37.20;86.40;;;;;;5154826;27;19910;-67
2022/07/01 09:40:46;;;;;;;;;;;36.60;86.10;;;;;;5154856;27;19997;-66
2022/07/01 09:43:25;;;;;;;;;;;36.50;86.20;;;;;;5154780;27;19907;-66
2022/07/01 09:45:52;;;;;;;;;;;36.40;87.20;;;;;;5154671;27;19903;-68
2022/07/01 09:48:18;;;;;;;;;;;36.30;88.00;;;;;;5153057;27;19911;-66
2022/07/01 09:50:44;;;;;;;;;;;36.50;88.40;;;;;;5154233;27;20373;-66
2022/07/01 09:53:10;;;;;;;;;;;36.50;86.80;;;;;;5154276;27;19977;-66
2022/07/01 09:55:37;;;;;;;;;;;36.30;87.80;;;;;;5154605;27;19942;-66
2022/07/01 09:58:02;;;;;;;;;;;36.30;87.80;;;;;;5154251;27;19903;-66
2022/07/01 10:00:32;;;;;;;;;;;36.10;86.50;;;;;;5153999;27;19956;-66
2022/07/01 10:03:00;;;;;;;;;;;35.90;86.70;;;;;;5152629;27;19910;-66
2022/07/01 10:05:27;;;;;;;;;;;35.90;88.30;;;;;;5154257;27;19903;-66
2022/07/01 10:08:01;;;;;;;;;;;35.90;87.30;;;;;;5154015;27;19915;-66
2022/07/01 10:10:36;;;;;;;;;;;36.00;86.50;;;;;;5154215;27;19978;-66
2022/07/01 10:13:03;;;;;;;;;;;36.20;87.10;;;;;;5154041;27;19939;-67
2022/07/01 10:15:29;;;;;;;;;;;35.80;89.00;;;;;;5153935;27;20279;-67
2022/07/01 10:17:55;;;;;;;;;;;35.50;90.60;;;;;;5153943;27;19926;-66
2022/07/01 10:20:25;;;;;;;;;;;35.40;90.70;;;;;;5153364;27;20291;-66
2022/07/01 10:22:59;;;;;;;;;;;35.70;90.60;;;;;;5153319;27;19915;-66
2022/07/01 10:25:41;;;;;;;;;;;35.80;90.40;;;;;;5153902;27;20007;-67
2022/07/01 10:28:19;;;;;;;;;;;36.00;89.40;;;;;;5153654;27;19951;-66
2022/07/01 10:30:49;;;;;;;;;;;36.10;88.10;;;;;;5153348;27;20042;-66
2022/07/01 10:33:27;;;;;;;;;;;35.90;86.70;;;;;;5153002;27;20393;-66
2022/07/01 10:35:53;;;;;;;;;;;35.70;86.40;;;;;;5153520;27;19998;-66
2022/07/01 10:38:19;;;;;;;;;;;35.20;86.00;;;;;;5154158;27;19997;-66
2022/07/01 10:40:46;;;;;;;;;;;34.80;87.20;;;;;;5153939;27;19903;-66
2022/07/01 10:43:15;;;;;;;;;;;34.50;87.70;;;;;;5152507;27;19903;-67
2022/07/01 10:45:42;;;;;;;;;;;34.70;87.60;;;;;;5153769;27;19903;-67
2022/07/01 10:48:18;;;;;;;;;;;34.90;85.60;;;;;;5153750;27;19903;-66
2022/07/01 10:50:46;;;;;;;;;;;35.20;85.50;;;;;;5152702;27;20245;-66
2022/07/01 10:53:12;;;;;;;;;;;35.40;86.40;;;;;;5153468;27;19957;-66
2022/07/01 10:55:38;;;;;;;;;;;35.60;86.50;;;;;;5152882;27;20303;-67
2022/07/01 10:58:04;;;;;;;;;;;35.80;86.20;;;;;;5153296;27;19907;-66
2022/07/01 11:00:32;;;;;;;;;;;35.90;87.10;;;;;;5153210;27;19903;-66
2022/07/01 11:03:11;;;;;;;;;;;35.80;86.70;;;;;;5153641;27;19903;-67
2022/07/01 11:05:39;;;;;;;;;;;35.50;86.10;;;;;;5153426;27;19903;-67
2022/07/01 11:08:07;;;;;;;;;;;35.60;86.70;;;;;;5153106;27;19926;-67
2022/07/01 11:10:33;;;;;;;;;;;35.80;87.00;;;;;;5153273;27;19933;-67
2022/07/01 11:13:02;;;;;;;;;;;35.60;88.70;;;;;;5151907;27;19982;-67
2022/07/01 11:15:29;;;;;;;;;;;35.50;89.00;;;;;;5153212;27;19918;-67
2022/07/01 11:17:56;;;;;;;;;;;35.60;90.10;;;;;;5153691;27;19911;-66
2022/07/01 11:20:23;;;;;;;;;;;35.50;91.40;;;;;;5154024;27;20363;-66
2022/07/01 11:22:49;;;;;;;;;;;35.20;90.60;;;;;;5153941;27;19903;-67
2022/07/01 11:25:14;;;;;;;;;;;35.10;86.80;;;;;;5153833;27;19903;-67
2022/07/01 11:27:44;;;;;;;;;;;35.20;85.40;;;;;;5153635;27;19903;-67
2022/07/01 11:30:14;;;;;;;;;;;35.20;68.10;;;;;;5153976;27;19903;-65
2022/07/01 11:32:44;;;;;;;;;;;35.00;71.70;;;;;;5153682;27;19903;-66
2022/07/01 11:40:57;;;;;;;;;;;35.20;64.40;;;;;;5153625;27;19926;-67
2022/07/01 11:43:27;;;;;;;;;;;35.50;61.50;;;;;;5153544;27;20355;-66
2022/07/01 11:45:53;;;;;;;;;;;35.80;62.90;;;;;;5154677;27;19947;-68
2022/07/01 11:48:31;;;;;;;;;;;35.80;64.70;;;;;;5157276;27;19903;-66
2022/07/01 11:50:58;;;;;;;;;;;35.70;65.60;;;;;;5157614;27;19930;-67
2022/07/01 11:53:24;;;;;;;;;;;35.60;65.90;;;;;;5156836;27;20262;-67
2022/07/01 11:55:49;;;;;;;;;;;35.50;67.40;;;;;;5155646;27;19918;-66
2022/07/01 11:58:15;;;;;;;;;;;35.50;65.60;;;;;;5157209;27;19937;-67
2022/07/01 12:00:41;;;;;;;;;;;35.40;66.40;;;;;;5156676;27;19926;-66
2022/07/01 12:03:07;;;;;;;;;;;35.50;65.60;;;;;;5157020;27;19990;-66
2022/07/01 12:05:34;;;;;;;;;;;35.70;66.30;;;;;;5156925;27;19903;-66
2022/07/01 12:08:00;;;;;;;;;;;35.80;67.30;;;;;;5157081;27;20389;-66
2022/07/01 12:10:27;;;;;;;;;;;36.00;66.70;;;;;;5156786;27;19951;-67
2022/07/01 12:12:52;;;;;;;;;;;36.00;67.70;;;;;;5156618;27;19903;-66
2022/07/01 12:15:20;;;;;;;;;;;36.00;68.30;;;;;;5157055;27;19922;-66
2022/07/01 12:17:45;;;;;;;;;;;36.00;69.00;;;;;;5157054;27;19910;-68
2022/07/01 12:20:11;;;;;;;;;;;35.70;68.90;;;;;;5156984;27;19993;-66
2022/07/01 12:22:37;;;;;;;;;;;35.50;70.30;;;;;;5157411;27;19907;-67
2022/07/01 12:25:07;;;;;;;;;;;35.40;69.50;;;;;;5156857;27;19903;-67
2022/07/01 12:27:34;;;;;;;;;;;35.40;69.10;;;;;;5156854;27;19998;-66
2022/07/01 12:30:00;;;;;;;;;;;35.50;68.50;;;;;;5156645;27;20266;-66
2022/07/01 12:32:27;;;;;;;;;;;35.80;67.00;;;;;;5156700;27;19903;-66
2022/07/01 12:34:54;;;;;;;;;;;36.00;67.40;;;;;;5156579;27;19933;-66
2022/07/01 12:37:21;;;;;;;;;;;36.10;66.70;;;;;;5155185;27;19903;-66
2022/07/01 12:39:54;;;;;;;;;;;36.40;64.10;;;;;;5156512;27;20286;-66
2022/07/01 12:42:24;;;;;;;;;;;36.50;61.00;;;;;;5156522;27;19903;-66
2022/07/01 12:44:51;;;;;;;;;;;36.80;61.50;;;;;;5156373;27;20335;-66
2022/07/01 12:47:30;;;;;;;;;;;36.60;59.60;;;;;;5156281;27;20005;-66
2022/07/01 12:50:14;;;;;;;;;;;36.50;59.70;;;;;;5156531;27;19995;-68
2022/07/01 12:52:41;;;;;;;;;;;36.50;60.30;;;;;;5156103;27;19907;-66
2022/07/01 12:55:14;;;;;;;;;;;36.30;60.90;;;;;;5155974;27;20335;-65
2022/07/01 12:57:39;;;;;;;;;;;36.10;61.70;;;;;;5155912;27;19902;-66
2022/07/01 13:00:06;;;;;;;;;;;36.20;63.70;;;;;;5156019;27;20259;-66
2022/07/01 13:02:32;;;;;;;;;;;36.20;63.90;;;;;;5155673;27;19903;-66
2022/07/01 13:04:57;;;;;;;;;;;36.40;64.50;;;;;;5154263;27;20378;-65
2022/07/01 13:07:23;;;;;;;;;;;36.50;65.50;;;;;;5155679;27;19914;-66
2022/07/01 13:09:49;;;;;;;;;;;36.70;64.90;;;;;;5156107;27;19909;-66
2022/07/01 13:12:15;;;;;;;;;;;36.50;62.90;;;;;;5155579;27;20335;-66
2022/07/01 13:14:41;;;;;;;;;;;36.60;62.80;;;;;;5155905;27;19911;-66
2022/07/01 13:17:06;;;;;;;;;;;36.50;62.70;;;;;;5155652;27;19907;-66
2022/07/01 13:19:34;;;;;;;;;;;36.40;61.10;;;;;;5156324;27;19910;-67
2022/07/01 13:22:01;;;;;;;;;;;36.10;61.90;;;;;;5155813;27;19903;-66
2022/07/01 13:24:27;;;;;;;;;;;36.10;62.10;;;;;;5154253;27;19907;-66
2022/07/01 13:26:53;;;;;;;;;;;36.20;61.90;;;;;;5155881;27;20312;-67
2022/07/01 13:29:18;;;;;;;;;;;36.00;61.80;;;;;;5155519;27;19903;-67
2022/07/01 13:31:44;;;;;;;;;;;36.20;61.00;;;;;;5155581;27;19951;-67
2022/07/01 13:34:10;;;;;;;;;;;36.20;61.70;;;;;;5155509;27;19914;-67
2022/07/01 13:36:36;;;;;;;;;;;36.10;64.70;;;;;;5155957;27;19950;-66
2022/07/01 13:39:02;;;;;;;;;;;35.80;64.70;;;;;;5155479;27;19929;-67
2022/07/01 13:41:28;;;;;;;;;;;35.90;63.90;;;;;;5155813;27;20058;-66
2022/07/01 13:43:54;;;;;;;;;;;36.00;63.20;;;;;;5155550;27;19982;-67
2022/07/01 13:46:20;;;;;;;;;;;36.10;64.70;;;;;;5155879;27;19946;-66
2022/07/01 13:48:46;;;;;;;;;;;36.10;66.90;;;;;;5155478;27;19934;-67
2022/07/01 13:51:12;;;;;;;;;;;36.00;67.80;;;;;;5155371;27;19945;-67
2022/07/01 13:53:37;;;;;;;;;;;36.10;67.70;;;;;;5155288;27;20262;-67
2022/07/01 13:56:03;;;;;;;;;;;36.10;68.50;;;;;;5154738;27;20429;-66
2022/07/01 13:58:29;;;;;;;;;;;36.20;68.80;;;;;;5154557;27;19903;-66
2022/07/01 14:00:55;;;;;;;;;;;36.10;69.60;;;;;;5154717;27;19910;-67
2022/07/01 14:03:22;;;;;;;;;;;35.80;70.70;;;;;;5154676;27;20431;-67
2022/07/01 14:05:48;;;;;;;;;;;35.90;68.90;;;;;;5154196;27;19995;-67
2022/07/01 14:08:14;;;;;;;;;;;35.80;71.40;;;;;;5154476;27;20351;-67
2022/07/01 14:10:43;;;;;;;;;;;35.90;71.40;;;;;;5154830;27;19942;-66
2022/07/01 14:13:10;;;;;;;;;;;35.70;69.80;;;;;;5154494;27;19963;-67
2022/07/01 14:15:36;;;;;;;;;;;35.70;71.30;;;;;;5154602;27;20251;-66
2022/07/01 14:18:02;;;;;;;;;;;35.50;72.00;;;;;;5154214;27;20342;-67
2022/07/01 14:20:29;;;;;;;;;;;35.40;72.00;;;;;;5154515;27;20003;-68
2022/07/01 14:22:55;;;;;;;;;;;35.20;72.30;;;;;;5154853;27;19903;-67
2022/07/01 14:25:21;;;;;;;;;;;35.40;71.00;;;;;;5154846;27;20364;-66
2022/07/01 14:27:48;;;;;;;;;;;35.10;68.30;;;;;;5154744;27;20002;-67
2022/07/01 14:30:15;;;;;;;;;;;35.20;70.90;;;;;;5155159;27;19990;-67
2022/07/01 14:32:40;;;;;;;;;;;35.30;72.10;;;;;;5154665;27;19903;-67
2022/07/01 14:35:07;;;;;;;;;;;35.30;74.50;;;;;;5155168;27;20044;-67